sensor_id;sensor_type;location;lat;lon;timestamp;temperature;humidity
18392;DHT22;9322;50.932;5.318;2022-08-05T00:00:15;19.20;99.90
18392;DHT22;9322;50.932;5.318;2022-08-05T00:02:41;19.20;99.90
18392;DHT22;9322;50.932;5.318;2022-08-05T00:05:07;19.10;99.90
18392;DHT22;9322;50.932;5.318;2022-08-05T00:07:32;19.10;99.90
18392;DHT22;9322;50.932;5.318;2022-08-05T00:09:58;19.10;99.90
18392;DHT22;9322;50.932;5.318;2022-08-05T00:12:24;19.10;99.90
18392;DHT22;9322;50.932;5.318;2022-08-05T00:14:50;19.10;99.90
18392;DHT22;9322;50.932;5.318;2022-08-05T00:17:15;19.00;99.90
18392;DHT22;9322;50.932;5.318;2022-08-05T00:19:41;19.00;99.90
18392;DHT22;9322;50.932;5.318;2022-08-05T00:22:07;19.00;99.90
18392;DHT22;9322;50.932;5.318;2022-08-05T00:24:32;19.00;99.90
18392;DHT22;9322;50.932;5.318;2022-08-05T00:26:59;19.00;99.90
18392;DHT22;9322;50.932;5.318;2022-08-05T00:29:25;19.00;99.90
18392;DHT22;9322;50.932;5.318;2022-08-05T00:31:50;18.90;99.90
18392;DHT22;9322;50.932;5.318;2022-08-05T00:34:16;19.00;99.90
18392;DHT22;9322;50.932;5.318;2022-08-05T00:36:42;19.00;99.90
18392;DHT22;9322;50.932;5.318;2022-08-05T00:39:07;19.00;99.90
18392;DHT22;9322;50.932;5.318;2022-08-05T00:41:34;19.00;99.90
18392;DHT22;9322;50.932;5.318;2022-08-05T00:44:00;19.10;99.90
18392;DHT22;9322;50.932;5.318;2022-08-05T00:46:26;19.00;99.90
18392;DHT22;9322;50.932;5.318;2022-08-05T00:48:52;19.20;99.90
18392;DHT22;9322;50.932;5.318;2022-08-05T00:51:19;19.30;99.90
18392;DHT22;9322;50.932;5.318;2022-08-05T00:53:45;19.40;99.90
18392;DHT22;9322;50.932;5.318;2022-08-05T00:56:11;19.40;99.90
18392;DHT22;9322;50.932;5.318;2022-08-05T00:58:37;19.50;99.90
18392;DHT22;9322;50.932;5.318;2022-08-05T01:01:03;19.60;99.90
18392;DHT22;9322;50.932;5.318;2022-08-05T01:03:29;19.70;99.90
18392;DHT22;9322;50.932;5.318;2022-08-05T01:05:55;19.80;99.90
18392;DHT22;9322;50.932;5.318;2022-08-05T01:08:21;19.80;99.90
18392;DHT22;9322;50.932;5.318;2022-08-05T01:11:07;19.90;99.90
18392;DHT22;9322;50.932;5.318;2022-08-05T01:13:51;19.70;99.90
18392;DHT22;9322;50.932;5.318;2022-08-05T01:16:52;19.80;99.90
18392;DHT22;9322;50.932;5.318;2022-08-05T01:19:35;19.70;99.90
18392;DHT22;9322;50.932;5.318;2022-08-05T01:27:58;19.70;99.90
18392;DHT22;9322;50.932;5.318;2022-08-05T01:30:34;19.50;99.90
18392;DHT22;9322;50.932;5.318;2022-08-05T01:33:05;19.20;99.90
18392;DHT22;9322;50.932;5.318;2022-08-05T01:35:33;18.90;99.90
18392;DHT22;9322;50.932;5.318;2022-08-05T01:38:01;18.70;99.90
18392;DHT22;9322;50.932;5.318;2022-08-05T01:40:29;18.70;99.90
18392;DHT22;9322;50.932;5.318;2022-08-05T01:43:01;18.50;99.90
18392;DHT22;9322;50.932;5.318;2022-08-05T01:45:28;18.50;99.90
18392;DHT22;9322;50.932;5.318;2022-08-05T01:47:56;18.50;99.90
18392;DHT22;9322;50.932;5.318;2022-08-05T01:50:26;18.40;99.90
18392;DHT22;9322;50.932;5.318;2022-08-05T01:52:53;18.40;99.90
18392;DHT22;9322;50.932;5.318;2022-08-05T01:55:22;18.30;99.90
18392;DHT22;9322;50.932;5.318;2022-08-05T01:57:51;18.30;99.90
18392;DHT22;9322;50.932;5.318;2022-08-05T02:00:17;18.30;99.90
18392;DHT22;9322;50.932;5.318;2022-08-05T02:02:59;18.40;99.90
18392;DHT22;9322;50.932;5.318;2022-08-05T02:05:31;18.50;99.90
18392;DHT22;9322;50.932;5.318;2022-08-05T02:07:58;18.40;99.90
18392;DHT22;9322;50.932;5.318;2022-08-05T02:10:26;18.50;99.90
18392;DHT22;9322;50.932;5.318;2022-08-05T02:12:58;18.30;99.90
18392;DHT22;9322;50.932;5.318;2022-08-05T02:15:30;18.40;99.90
18392;DHT22;9322;50.932;5.318;2022-08-05T02:18:10;18.30;99.90
18392;DHT22;9322;50.932;5.318;2022-08-05T02:20:50;18.50;99.90
18392;DHT22;9322;50.932;5.318;2022-08-05T02:23:21;18.50;99.90
18392;DHT22;9322;50.932;5.318;2022-08-05T02:25:48;18.50;99.90
18392;DHT22;9322;50.932;5.318;2022-08-05T02:28:16;18.60;99.90
18392;DHT22;9322;50.932;5.318;2022-08-05T02:30:49;18.60;99.90
18392;DHT22;9322;50.932;5.318;2022-08-05T02:33:17;18.70;99.90
18392;DHT22;9322;50.932;5.318;2022-08-05T02:35:45;18.60;99.90
18392;DHT22;9322;50.932;5.318;2022-08-05T02:38:12;18.70;99.90
18392;DHT22;9322;50.932;5.318;2022-08-05T02:40:41;18.70;99.90
18392;DHT22;9322;50.932;5.318;2022-08-05T02:43:09;18.70;99.90
18392;DHT22;9322;50.932;5.318;2022-08-05T02:45:35;18.80;99.90
18392;DHT22;9322;50.932;5.318;2022-08-05T02:48:03;18.90;99.90
18392;DHT22;9322;50.932;5.318;2022-08-05T02:50:29;18.80;99.90
18392;DHT22;9322;50.932;5.318;2022-08-05T02:52:56;18.90;99.90
18392;DHT22;9322;50.932;5.318;2022-08-05T02:55:23;18.80;99.90
18392;DHT22;9322;50.932;5.318;2022-08-05T02:57:49;18.80;99.90
18392;DHT22;9322;50.932;5.318;2022-08-05T03:00:15;18.90;99.90
18392;DHT22;9322;50.932;5.318;2022-08-05T03:02:42;18.90;99.90
18392;DHT22;9322;50.932;5.318;2022-08-05T03:05:10;18.90;99.90
18392;DHT22;9322;50.932;5.318;2022-08-05T03:07:38;18.90;99.90
18392;DHT22;9322;50.932;5.318;2022-08-05T03:10:05;18.90;99.90
18392;DHT22;9322;50.932;5.318;2022-08-05T03:12:33;19.00;99.90
18392;DHT22;9322;50.932;5.318;2022-08-05T03:14:59;18.90;99.90
18392;DHT22;9322;50.932;5.318;2022-08-05T03:17:25;18.90;99.90
18392;DHT22;9322;50.932;5.318;2022-08-05T03:19:51;18.80;99.90
18392;DHT22;9322;50.932;5.318;2022-08-05T03:22:17;18.90;99.90
18392;DHT22;9322;50.932;5.318;2022-08-05T03:24:45;18.90;99.90
18392;DHT22;9322;50.932;5.318;2022-08-05T03:27:11;19.00;99.90
18392;DHT22;9322;50.932;5.318;2022-08-05T03:29:37;19.00;99.90
18392;DHT22;9322;50.932;5.318;2022-08-05T03:32:08;19.00;99.90
18392;DHT22;9322;50.932;5.318;2022-08-05T03:34:35;19.00;99.90
18392;DHT22;9322;50.932;5.318;2022-08-05T03:37:03;18.90;99.90
18392;DHT22;9322;50.932;5.318;2022-08-05T03:39:29;18.90;99.90
18392;DHT22;9322;50.932;5.318;2022-08-05T03:41:55;18.90;99.90
18392;DHT22;9322;50.932;5.318;2022-08-05T03:44:21;18.80;99.90
18392;DHT22;9322;50.932;5.318;2022-08-05T03:46:47;18.80;99.90
18392;DHT22;9322;50.932;5.318;2022-08-05T03:49:13;18.70;99.90
18392;DHT22;9322;50.932;5.318;2022-08-05T03:51:42;18.60;99.90
18392;DHT22;9322;50.932;5.318;2022-08-05T03:54:29;18.60;99.90
18392;DHT22;9322;50.932;5.318;2022-08-05T03:56:57;18.60;99.90
18392;DHT22;9322;50.932;5.318;2022-08-05T03:59:33;18.70;99.90
18392;DHT22;9322;50.932;5.318;2022-08-05T04:02:00;18.70;99.90
18392;DHT22;9322;50.932;5.318;2022-08-05T04:04:28;18.60;99.90
18392;DHT22;9322;50.932;5.318;2022-08-05T04:06:55;18.70;99.90
18392;DHT22;9322;50.932;5.318;2022-08-05T04:09:22;18.70;99.90
18392;DHT22;9322;50.932;5.318;2022-08-05T04:11:48;18.70;99.90
18392;DHT22;9322;50.932;5.318;2022-08-05T04:14:15;18.70;99.90
18392;DHT22;9322;50.932;5.318;2022-08-05T04:16:42;18.70;99.90
18392;DHT22;9322;50.932;5.318;2022-08-05T04:19:11;18.80;99.90
18392;DHT22;9322;50.932;5.318;2022-08-05T04:21:37;18.80;99.90
18392;DHT22;9322;50.932;5.318;2022-08-05T04:24:03;18.80;99.90
18392;DHT22;9322;50.932;5.318;2022-08-05T04:26:30;18.70;99.90
18392;DHT22;9322;50.932;5.318;2022-08-05T04:28:55;18.70;99.90
18392;DHT22;9322;50.932;5.318;2022-08-05T04:31:21;18.70;99.90
18392;DHT22;9322;50.932;5.318;2022-08-05T04:33:47;18.70;99.90
18392;DHT22;9322;50.932;5.318;2022-08-05T04:36:13;18.40;99.90
18392;DHT22;9322;50.932;5.318;2022-08-05T04:38:41;18.50;99.90
18392;DHT22;9322;50.932;5.318;2022-08-05T04:41:07;18.60;99.90
18392;DHT22;9322;50.932;5.318;2022-08-05T04:43:33;18.60;99.90
18392;DHT22;9322;50.932;5.318;2022-08-05T04:45:59;18.60;99.90
18392;DHT22;9322;50.932;5.318;2022-08-05T04:48:24;18.70;99.90
18392;DHT22;9322;50.932;5.318;2022-08-05T04:50:51;18.70;99.90
18392;DHT22;9322;50.932;5.318;2022-08-05T04:53:17;18.70;99.90
18392;DHT22;9322;50.932;5.318;2022-08-05T04:55:44;18.60;99.90
18392;DHT22;9322;50.932;5.318;2022-08-05T04:58:12;18.70;99.90
18392;DHT22;9322;50.932;5.318;2022-08-05T05:00:39;18.70;99.90
18392;DHT22;9322;50.932;5.318;2022-08-05T05:03:06;18.80;99.90
18392;DHT22;9322;50.932;5.318;2022-08-05T05:05:32;18.80;99.90
18392;DHT22;9322;50.932;5.318;2022-08-05T05:08:05;18.80;99.90
18392;DHT22;9322;50.932;5.318;2022-08-05T05:10:39;18.80;99.90
18392;DHT22;9322;50.932;5.318;2022-08-05T05:13:10;18.80;99.90
18392;DHT22;9322;50.932;5.318;2022-08-05T05:15:36;18.70;99.90
18392;DHT22;9322;50.932;5.318;2022-08-05T05:18:01;18.70;99.90
18392;DHT22;9322;50.932;5.318;2022-08-05T05:20:27;18.80;99.90
18392;DHT22;9322;50.932;5.318;2022-08-05T05:22:53;18.90;99.90
18392;DHT22;9322;50.932;5.318;2022-08-05T05:25:18;19.00;99.90
18392;DHT22;9322;50.932;5.318;2022-08-05T05:27:44;19.00;99.90
18392;DHT22;9322;50.932;5.318;2022-08-05T05:30:10;19.00;99.90
18392;DHT22;9322;50.932;5.318;2022-08-05T05:32:36;19.00;99.90
18392;DHT22;9322;50.932;5.318;2022-08-05T05:35:02;18.90;99.90
18392;DHT22;9322;50.932;5.318;2022-08-05T05:37:28;18.80;99.90
18392;DHT22;9322;50.932;5.318;2022-08-05T05:39:53;18.80;99.90
18392;DHT22;9322;50.932;5.318;2022-08-05T05:42:19;18.90;99.90
18392;DHT22;9322;50.932;5.318;2022-08-05T05:44:45;18.80;99.90
18392;DHT22;9322;50.932;5.318;2022-08-05T05:47:10;18.70;99.90
18392;DHT22;9322;50.932;5.318;2022-08-05T05:49:36;18.80;99.90
18392;DHT22;9322;50.932;5.318;2022-08-05T05:52:02;18.70;99.90
18392;DHT22;9322;50.932;5.318;2022-08-05T05:54:27;18.80;99.90
18392;DHT22;9322;50.932;5.318;2022-08-05T05:56:53;18.90;99.90
18392;DHT22;9322;50.932;5.318;2022-08-05T05:59:19;18.70;99.90
18392;DHT22;9322;50.932;5.318;2022-08-05T06:01:44;18.60;99.90
18392;DHT22;9322;50.932;5.318;2022-08-05T06:04:12;18.60;99.90
18392;DHT22;9322;50.932;5.318;2022-08-05T06:06:39;18.40;99.90
18392;DHT22;9322;50.932;5.318;2022-08-05T06:09:06;18.50;99.90
18392;DHT22;9322;50.932;5.318;2022-08-05T06:11:32;18.40;99.90
18392;DHT22;9322;50.932;5.318;2022-08-05T06:13:58;18.40;99.90
18392;DHT22;9322;50.932;5.318;2022-08-05T06:16:24;18.40;99.90
18392;DHT22;9322;50.932;5.318;2022-08-05T06:18:50;18.40;99.90
18392;DHT22;9322;50.932;5.318;2022-08-05T06:21:16;18.40;99.90
18392;DHT22;9322;50.932;5.318;2022-08-05T06:23:42;18.60;99.90
18392;DHT22;9322;50.932;5.318;2022-08-05T06:26:08;18.60;99.90
18392;DHT22;9322;50.932;5.318;2022-08-05T06:28:33;18.70;99.90
18392;DHT22;9322;50.932;5.318;2022-08-05T06:30:59;18.50;99.90
18392;DHT22;9322;50.932;5.318;2022-08-05T06:33:25;18.50;99.90
18392;DHT22;9322;50.932;5.318;2022-08-05T06:35:50;18.70;99.90
18392;DHT22;9322;50.932;5.318;2022-08-05T06:38:16;18.70;99.90
18392;DHT22;9322;50.932;5.318;2022-08-05T06:40:42;18.60;99.90
18392;DHT22;9322;50.932;5.318;2022-08-05T06:43:07;18.60;99.90
18392;DHT22;9322;50.932;5.318;2022-08-05T06:45:34;18.40;99.90
18392;DHT22;9322;50.932;5.318;2022-08-05T06:48:00;18.40;99.90
18392;DHT22;9322;50.932;5.318;2022-08-05T06:50:25;18.40;99.90
18392;DHT22;9322;50.932;5.318;2022-08-05T06:52:52;18.70;99.90
18392;DHT22;9322;50.932;5.318;2022-08-05T06:55:18;18.50;99.90
18392;DHT22;9322;50.932;5.318;2022-08-05T06:57:43;18.40;99.90
18392;DHT22;9322;50.932;5.318;2022-08-05T07:00:09;18.50;99.90
18392;DHT22;9322;50.932;5.318;2022-08-05T07:02:45;18.90;99.90
18392;DHT22;9322;50.932;5.318;2022-08-05T07:05:11;19.00;99.90
18392;DHT22;9322;50.932;5.318;2022-08-05T07:07:41;19.30;99.90
18392;DHT22;9322;50.932;5.318;2022-08-05T07:10:08;19.60;99.90
18392;DHT22;9322;50.932;5.318;2022-08-05T07:12:34;19.70;99.90
18392;DHT22;9322;50.932;5.318;2022-08-05T07:15:18;19.60;99.90
18392;DHT22;9322;50.932;5.318;2022-08-05T07:18:02;19.80;99.90
18392;DHT22;9322;50.932;5.318;2022-08-05T07:20:28;19.80;99.90
18392;DHT22;9322;50.932;5.318;2022-08-05T07:22:53;19.90;99.90
18392;DHT22;9322;50.932;5.318;2022-08-05T07:25:19;20.10;99.90
18392;DHT22;9322;50.932;5.318;2022-08-05T07:27:45;20.40;99.90
18392;DHT22;9322;50.932;5.318;2022-08-05T07:30:11;20.70;99.90
18392;DHT22;9322;50.932;5.318;2022-08-05T07:32:37;20.90;99.90
18392;DHT22;9322;50.932;5.318;2022-08-05T07:35:12;20.90;99.90
18392;DHT22;9322;50.932;5.318;2022-08-05T07:37:38;21.10;99.90
18392;DHT22;9322;50.932;5.318;2022-08-05T07:40:05;21.20;99.90
18392;DHT22;9322;50.932;5.318;2022-08-05T07:42:31;20.90;99.90
18392;DHT22;9322;50.932;5.318;2022-08-05T07:44:57;21.00;99.90
18392;DHT22;9322;50.932;5.318;2022-08-05T07:47:23;21.20;99.90
18392;DHT22;9322;50.932;5.318;2022-08-05T07:49:49;21.20;99.90
18392;DHT22;9322;50.932;5.318;2022-08-05T07:52:18;21.00;99.90
18392;DHT22;9322;50.932;5.318;2022-08-05T07:54:44;20.70;99.90
18392;DHT22;9322;50.932;5.318;2022-08-05T07:57:10;20.40;99.90
18392;DHT22;9322;50.932;5.318;2022-08-05T07:59:36;20.40;99.90
18392;DHT22;9322;50.932;5.318;2022-08-05T08:02:01;20.30;99.90
18392;DHT22;9322;50.932;5.318;2022-08-05T08:04:27;20.40;99.90
18392;DHT22;9322;50.932;5.318;2022-08-05T08:06:53;20.50;99.90
18392;DHT22;9322;50.932;5.318;2022-08-05T08:09:20;20.80;99.90
18392;DHT22;9322;50.932;5.318;2022-08-05T08:11:46;21.00;99.90
18392;DHT22;9322;50.932;5.318;2022-08-05T08:14:11;21.30;99.90
18392;DHT22;9322;50.932;5.318;2022-08-05T08:16:37;21.40;99.90
18392;DHT22;9322;50.932;5.318;2022-08-05T08:19:03;21.70;99.90
18392;DHT22;9322;50.932;5.318;2022-08-05T08:21:28;21.80;99.90
18392;DHT22;9322;50.932;5.318;2022-08-05T08:23:54;21.80;99.90
18392;DHT22;9322;50.932;5.318;2022-08-05T08:26:20;21.80;99.90
18392;DHT22;9322;50.932;5.318;2022-08-05T08:28:46;21.60;99.90
18392;DHT22;9322;50.932;5.318;2022-08-05T08:31:11;21.80;99.90
18392;DHT22;9322;50.932;5.318;2022-08-05T08:33:37;22.30;99.90
18392;DHT22;9322;50.932;5.318;2022-08-05T08:36:03;23.00;99.90
18392;DHT22;9322;50.932;5.318;2022-08-05T08:38:29;23.70;99.90
18392;DHT22;9322;50.932;5.318;2022-08-05T08:40:55;24.70;99.90
18392;DHT22;9322;50.932;5.318;2022-08-05T08:43:22;25.00;93.20
18392;DHT22;9322;50.932;5.318;2022-08-05T08:45:49;25.30;87.70
18392;DHT22;9322;50.932;5.318;2022-08-05T08:48:18;25.40;86.50
18392;DHT22;9322;50.932;5.318;2022-08-05T08:50:46;25.50;82.50
18392;DHT22;9322;50.932;5.318;2022-08-05T08:53:15;25.80;81.80
18392;DHT22;9322;50.932;5.318;2022-08-05T08:55:41;25.60;89.10
18392;DHT22;9322;50.932;5.318;2022-08-05T08:58:07;26.10;85.40
18392;DHT22;9322;50.932;5.318;2022-08-05T09:00:33;25.50;93.10
18392;DHT22;9322;50.932;5.318;2022-08-05T09:02:59;25.40;99.90
18392;DHT22;9322;50.932;5.318;2022-08-05T09:05:25;25.20;96.00
18392;DHT22;9322;50.932;5.318;2022-08-05T09:07:51;25.20;97.80
18392;DHT22;9322;50.932;5.318;2022-08-05T09:10:17;24.70;99.90
18392;DHT22;9322;50.932;5.318;2022-08-05T09:12:43;25.10;97.20
18392;DHT22;9322;50.932;5.318;2022-08-05T09:15:09;25.10;96.00
18392;DHT22;9322;50.932;5.318;2022-08-05T09:17:35;25.70;90.60
18392;DHT22;9322;50.932;5.318;2022-08-05T09:20:02;26.60;83.80
18392;DHT22;9322;50.932;5.318;2022-08-05T09:22:28;27.20;73.10
18392;DHT22;9322;50.932;5.318;2022-08-05T09:24:58;26.80;84.60
18392;DHT22;9322;50.932;5.318;2022-08-05T09:27:33;25.80;90.40
18392;DHT22;9322;50.932;5.318;2022-08-05T09:29:59;25.80;83.80
18392;DHT22;9322;50.932;5.318;2022-08-05T09:32:36;25.30;89.30
18392;DHT22;9322;50.932;5.318;2022-08-05T09:35:09;24.70;93.90
18392;DHT22;9322;50.932;5.318;2022-08-05T09:37:36;25.30;97.40
18392;DHT22;9322;50.932;5.318;2022-08-05T09:40:02;27.20;84.50
18392;DHT22;9322;50.932;5.318;2022-08-05T09:42:38;27.40;79.20
18392;DHT22;9322;50.932;5.318;2022-08-05T09:45:07;27.40;76.10
18392;DHT22;9322;50.932;5.318;2022-08-05T09:47:34;27.50;71.70
18392;DHT22;9322;50.932;5.318;2022-08-05T09:50:05;26.80;72.70
18392;DHT22;9322;50.932;5.318;2022-08-05T09:52:34;26.10;78.50
18392;DHT22;9322;50.932;5.318;2022-08-05T09:55:06;25.80;83.10
18392;DHT22;9322;50.932;5.318;2022-08-05T09:57:38;25.80;81.50
18392;DHT22;9322;50.932;5.318;2022-08-05T10:02:41;24.90;92.70
18392;DHT22;9322;50.932;5.318;2022-08-05T10:05:20;24.50;99.90
18392;DHT22;9322;50.932;5.318;2022-08-05T10:10:22;25.90;85.40
18392;DHT22;9322;50.932;5.318;2022-08-05T10:12:51;28.20;75.40
18392;DHT22;9322;50.932;5.318;2022-08-05T10:18:15;31.50;51.90
18392;DHT22;9322;50.932;5.318;2022-08-05T10:20:47;32.30;49.00
18392;DHT22;9322;50.932;5.318;2022-08-05T10:23:18;32.00;47.00
18392;DHT22;9322;50.932;5.318;2022-08-05T10:25:44;31.90;48.70
18392;DHT22;9322;50.932;5.318;2022-08-05T10:28:10;31.90;44.10
18392;DHT22;9322;50.932;5.318;2022-08-05T10:30:37;31.50;46.90
18392;DHT22;9322;50.932;5.318;2022-08-05T10:33:04;31.10;49.60
18392;DHT22;9322;50.932;5.318;2022-08-05T10:35:34;32.70;46.10
18392;DHT22;9322;50.932;5.318;2022-08-05T10:38:00;34.30;45.20
18392;DHT22;9322;50.932;5.318;2022-08-05T10:40:43;33.00;45.40
18392;DHT22;9322;50.932;5.318;2022-08-05T10:45:39;32.20;45.60
18392;DHT22;9322;50.932;5.318;2022-08-05T10:48:28;30.40;51.20
18392;DHT22;9322;50.932;5.318;2022-08-05T10:56:07;32.30;43.60
18392;DHT22;9322;50.932;5.318;2022-08-05T10:58:34;30.00;47.20
18392;DHT22;9322;50.932;5.318;2022-08-05T11:01:04;28.40;51.90
18392;DHT22;9322;50.932;5.318;2022-08-05T11:03:31;27.40;56.40
18392;DHT22;9322;50.932;5.318;2022-08-05T11:06:10;26.70;57.20
18392;DHT22;9322;50.932;5.318;2022-08-05T11:08:36;25.80;61.00
18392;DHT22;9322;50.932;5.318;2022-08-05T11:11:36;25.40;64.30
18392;DHT22;9322;50.932;5.318;2022-08-05T11:14:02;25.30;64.40
18392;DHT22;9322;50.932;5.318;2022-08-05T11:16:29;25.00;63.20
18392;DHT22;9322;50.932;5.318;2022-08-05T11:19:29;25.40;61.00
18392;DHT22;9322;50.932;5.318;2022-08-05T11:22:03;26.80;59.20
18392;DHT22;9322;50.932;5.318;2022-08-05T11:24:44;26.50;58.90
18392;DHT22;9322;50.932;5.318;2022-08-05T11:27:36;27.10;57.00
18392;DHT22;9322;50.932;5.318;2022-08-05T11:30:01;27.10;55.80
18392;DHT22;9322;50.932;5.318;2022-08-05T11:32:28;27.20;54.40
18392;DHT22;9322;50.932;5.318;2022-08-05T11:34:55;27.00;56.30
18392;DHT22;9322;50.932;5.318;2022-08-05T11:40:18;29.60;51.10
18392;DHT22;9322;50.932;5.318;2022-08-05T11:42:45;31.40;47.80
18392;DHT22;9322;50.932;5.318;2022-08-05T11:45:11;31.90;42.90
18392;DHT22;9322;50.932;5.318;2022-08-05T11:47:37;31.70;43.30
18392;DHT22;9322;50.932;5.318;2022-08-05T11:50:03;31.10;44.40
18392;DHT22;9322;50.932;5.318;2022-08-05T11:52:30;29.40;44.00
18392;DHT22;9322;50.932;5.318;2022-08-05T11:54:56;26.90;49.60
18392;DHT22;9322;50.932;5.318;2022-08-05T11:57:29;26.60;51.90
18392;DHT22;9322;50.932;5.318;2022-08-05T11:59:56;26.40;52.00
18392;DHT22;9322;50.932;5.318;2022-08-05T12:02:29;26.40;50.40
18392;DHT22;9322;50.932;5.318;2022-08-05T12:05:00;25.80;50.90
18392;DHT22;9322;50.932;5.318;2022-08-05T12:07:33;26.00;51.90
18392;DHT22;9322;50.932;5.318;2022-08-05T12:10:00;26.40;51.10
18392;DHT22;9322;50.932;5.318;2022-08-05T12:12:27;26.60;50.10
18392;DHT22;9322;50.932;5.318;2022-08-05T12:14:55;26.80;49.10
18392;DHT22;9322;50.932;5.318;2022-08-05T12:17:21;27.10;47.10
18392;DHT22;9322;50.932;5.318;2022-08-05T12:19:54;27.10;48.10
18392;DHT22;9322;50.932;5.318;2022-08-05T12:22:27;27.20;48.90
18392;DHT22;9322;50.932;5.318;2022-08-05T12:24:56;27.10;49.40
18392;DHT22;9322;50.932;5.318;2022-08-05T12:27:28;26.80;49.50
18392;DHT22;9322;50.932;5.318;2022-08-05T12:30:05;26.30;49.50
18392;DHT22;9322;50.932;5.318;2022-08-05T12:32:32;26.00;50.20
18392;DHT22;9322;50.932;5.318;2022-08-05T12:35:00;26.30;49.00
18392;DHT22;9322;50.932;5.318;2022-08-05T12:37:28;26.50;47.70
18392;DHT22;9322;50.932;5.318;2022-08-05T12:39:55;27.00;48.60
18392;DHT22;9322;50.932;5.318;2022-08-05T12:42:21;27.50;46.90
18392;DHT22;9322;50.932;5.318;2022-08-05T12:44:48;27.10;48.20
18392;DHT22;9322;50.932;5.318;2022-08-05T12:47:34;26.90;45.10
18392;DHT22;9322;50.932;5.318;2022-08-05T12:50:11;27.30;45.00
18392;DHT22;9322;50.932;5.318;2022-08-05T12:52:37;27.60;44.90
18392;DHT22;9322;50.932;5.318;2022-08-05T12:55:15;27.40;46.90
18392;DHT22;9322;50.932;5.318;2022-08-05T12:57:42;26.60;46.70
18392;DHT22;9322;50.932;5.318;2022-08-05T13:00:19;26.10;46.40
18392;DHT22;9322;50.932;5.318;2022-08-05T13:02:45;26.00;46.60
18392;DHT22;9322;50.932;5.318;2022-08-05T13:05:11;25.80;46.00
18392;DHT22;9322;50.932;5.318;2022-08-05T13:07:38;25.60;46.20
18392;DHT22;9322;50.932;5.318;2022-08-05T13:10:09;25.90;45.10
18392;DHT22;9322;50.932;5.318;2022-08-05T13:12:39;26.20;47.40
18392;DHT22;9322;50.932;5.318;2022-08-05T13:15:08;26.50;43.60
18392;DHT22;9322;50.932;5.318;2022-08-05T13:17:34;26.10;45.40
18392;DHT22;9322;50.932;5.318;2022-08-05T13:20:10;26.20;45.50
18392;DHT22;9322;50.932;5.318;2022-08-05T13:22:38;26.00;45.90
18392;DHT22;9322;50.932;5.318;2022-08-05T13:25:09;26.20;46.10
18392;DHT22;9322;50.932;5.318;2022-08-05T13:27:38;25.80;46.80
18392;DHT22;9322;50.932;5.318;2022-08-05T13:30:06;25.30;47.60
18392;DHT22;9322;50.932;5.318;2022-08-05T13:32:32;25.00;49.00
18392;DHT22;9322;50.932;5.318;2022-08-05T13:34:58;24.60;49.00
18392;DHT22;9322;50.932;5.318;2022-08-05T13:37:23;25.00;49.60
18392;DHT22;9322;50.932;5.318;2022-08-05T13:39:50;25.40;48.10
18392;DHT22;9322;50.932;5.318;2022-08-05T13:42:20;25.50;47.10
18392;DHT22;9322;50.932;5.318;2022-08-05T13:44:46;25.40;46.50
18392;DHT22;9322;50.932;5.318;2022-08-05T13:47:13;25.60;47.20
18392;DHT22;9322;50.932;5.318;2022-08-05T13:49:39;26.20;47.40
18392;DHT22;9322;50.932;5.318;2022-08-05T13:52:12;26.40;45.60
18392;DHT22;9322;50.932;5.318;2022-08-05T13:54:38;27.20;45.30
18392;DHT22;9322;50.932;5.318;2022-08-05T13:57:05;27.20;45.30
18392;DHT22;9322;50.932;5.318;2022-08-05T13:59:30;27.50;44.50
18392;DHT22;9322;50.932;5.318;2022-08-05T14:01:57;27.10;44.20
18392;DHT22;9322;50.932;5.318;2022-08-05T14:04:23;26.50;44.70
18392;DHT22;9322;50.932;5.318;2022-08-05T14:07:07;26.20;44.70
18392;DHT22;9322;50.932;5.318;2022-08-05T14:09:34;25.70;45.60
18392;DHT22;9322;50.932;5.318;2022-08-05T14:12:00;25.70;45.20
18392;DHT22;9322;50.932;5.318;2022-08-05T14:14:25;26.10;44.60
18392;DHT22;9322;50.932;5.318;2022-08-05T14:16:51;25.80;44.00
18392;DHT22;9322;50.932;5.318;2022-08-05T14:19:17;25.60;44.80
18392;DHT22;9322;50.932;5.318;2022-08-05T14:21:43;25.70;44.50
18392;DHT22;9322;50.932;5.318;2022-08-05T14:24:09;26.10;42.40
18392;DHT22;9322;50.932;5.318;2022-08-05T14:26:37;25.90;41.60
18392;DHT22;9322;50.932;5.318;2022-08-05T14:29:04;26.00;42.20
18392;DHT22;9322;50.932;5.318;2022-08-05T14:31:31;25.40;42.30
18392;DHT22;9322;50.932;5.318;2022-08-05T14:33:57;25.20;42.00
18392;DHT22;9322;50.932;5.318;2022-08-05T14:36:23;25.10;43.10
18392;DHT22;9322;50.932;5.318;2022-08-05T14:38:50;25.20;43.90
18392;DHT22;9322;50.932;5.318;2022-08-05T14:41:16;25.20;42.60
18392;DHT22;9322;50.932;5.318;2022-08-05T14:43:41;25.60;43.00
18392;DHT22;9322;50.932;5.318;2022-08-05T14:46:07;25.70;40.90
18392;DHT22;9322;50.932;5.318;2022-08-05T14:48:33;26.00;42.30
18392;DHT22;9322;50.932;5.318;2022-08-05T14:50:58;25.80;41.40
18392;DHT22;9322;50.932;5.318;2022-08-05T14:53:24;25.80;40.90
18392;DHT22;9322;50.932;5.318;2022-08-05T14:55:49;25.70;41.20
18392;DHT22;9322;50.932;5.318;2022-08-05T14:58:15;25.70;40.60
18392;DHT22;9322;50.932;5.318;2022-08-05T15:00:41;25.30;41.70
18392;DHT22;9322;50.932;5.318;2022-08-05T15:03:07;24.60;43.20
18392;DHT22;9322;50.932;5.318;2022-08-05T15:05:33;24.70;43.40
18392;DHT22;9322;50.932;5.318;2022-08-05T15:08:00;24.40;43.60
18392;DHT22;9322;50.932;5.318;2022-08-05T15:10:25;24.40;44.70
18392;DHT22;9322;50.932;5.318;2022-08-05T15:12:51;24.50;44.60
18392;DHT22;9322;50.932;5.318;2022-08-05T15:15:17;24.30;44.20
18392;DHT22;9322;50.932;5.318;2022-08-05T15:17:42;24.20;44.00
18392;DHT22;9322;50.932;5.318;2022-08-05T15:20:09;24.40;44.60
18392;DHT22;9322;50.932;5.318;2022-08-05T15:22:35;24.40;44.20
18392;DHT22;9322;50.932;5.318;2022-08-05T15:25:01;24.40;45.00
18392;DHT22;9322;50.932;5.318;2022-08-05T15:27:27;24.00;44.00
18392;DHT22;9322;50.932;5.318;2022-08-05T15:29:53;24.10;45.00
18392;DHT22;9322;50.932;5.318;2022-08-05T15:32:18;23.90;44.70
18392;DHT22;9322;50.932;5.318;2022-08-05T15:34:44;23.80;44.60
18392;DHT22;9322;50.932;5.318;2022-08-05T15:37:10;24.10;45.40
18392;DHT22;9322;50.932;5.318;2022-08-05T15:39:35;24.20;42.40
18392;DHT22;9322;50.932;5.318;2022-08-05T15:42:01;24.20;43.80
18392;DHT22;9322;50.932;5.318;2022-08-05T15:44:27;24.40;43.40
18392;DHT22;9322;50.932;5.318;2022-08-05T15:46:52;24.00;42.40
18392;DHT22;9322;50.932;5.318;2022-08-05T15:49:18;23.80;42.20
18392;DHT22;9322;50.932;5.318;2022-08-05T15:51:43;23.80;42.90
18392;DHT22;9322;50.932;5.318;2022-08-05T15:54:10;23.80;43.70
18392;DHT22;9322;50.932;5.318;2022-08-05T15:56:36;24.00;44.30
18392;DHT22;9322;50.932;5.318;2022-08-05T15:59:01;24.10;43.60
18392;DHT22;9322;50.932;5.318;2022-08-05T16:01:27;23.90;42.70
18392;DHT22;9322;50.932;5.318;2022-08-05T16:03:53;23.60;43.00
18392;DHT22;9322;50.932;5.318;2022-08-05T16:06:18;23.40;42.60
18392;DHT22;9322;50.932;5.318;2022-08-05T16:08:44;23.30;42.40
18392;DHT22;9322;50.932;5.318;2022-08-05T16:11:10;23.50;42.90
18392;DHT22;9322;50.932;5.318;2022-08-05T16:13:36;23.70;42.60